createdAt,value
2018-01-24T00:00:11.940Z,98544.45
2018-01-24T00:02:43.096Z,98546.14
2018-01-24T00:05:14.182Z,98547.14
2018-01-24T00:07:45.264Z,98538.06
2018-01-24T00:10:16.347Z,98549.78
2018-01-24T00:12:48.874Z,98558.46
2018-01-24T00:15:20.451Z,98543.91
2018-01-24T00:17:51.668Z,98539.09
2018-01-24T00:20:22.723Z,98533.65
2018-01-24T00:22:54.402Z,98535.16
2018-01-24T00:25:25.467Z,98531.30
2018-01-24T00:27:56.527Z,98532.34
2018-01-24T00:30:27.633Z,98533.06
2018-01-24T00:32:58.910Z,98528.41
2018-01-24T00:35:30.020Z,98526.79
2018-01-24T00:38:01.086Z,98526.91
2018-01-24T00:40:32.211Z,98529.64
2018-01-24T00:43:03.286Z,98524.78
2018-01-24T00:45:34.377Z,98524.09
2018-01-24T00:48:05.452Z,98522.16
2018-01-24T00:50:36.562Z,98519.73
2018-01-24T00:53:07.685Z,98510.38
2018-01-24T00:55:39.241Z,98505.73
2018-01-24T00:58:10.314Z,98507.45
2018-01-24T01:00:41.413Z,98503.00
2018-01-24T01:03:12.469Z,98499.36
2018-01-24T01:05:43.584Z,98502.70
2018-01-24T01:08:14.788Z,98503.02
2018-01-24T01:10:45.871Z,98505.72
2018-01-24T01:13:17.356Z,98499.79
2018-01-24T01:15:49.114Z,98498.87
2018-01-24T01:18:20.183Z,98501.20
2018-01-24T01:20:51.291Z,98498.57
2018-01-24T01:23:22.298Z,98488.18
2018-01-24T01:25:53.373Z,98488.39
2018-01-24T01:28:24.429Z,98489.81
2018-01-24T01:30:55.526Z,98485.67
2018-01-24T01:33:26.555Z,98496.25
2018-01-24T01:35:57.644Z,98484.25
2018-01-24T01:38:28.719Z,98490.28
2018-01-24T01:40:59.841Z,98492.02
2018-01-24T01:43:31.897Z,98487.47
2018-01-24T01:46:03.000Z,98478.20
2018-01-24T01:48:34.148Z,98485.81
2018-01-24T01:51:05.275Z,98482.21
2018-01-24T01:53:36.404Z,98486.05
2018-01-24T01:56:07.472Z,98495.70
2018-01-24T01:58:38.620Z,98489.89
2018-01-24T02:01:09.733Z,98488.27
2018-01-24T02:03:40.867Z,98491.67
2018-01-24T02:06:11.959Z,98493.19
2018-01-24T02:08:43.951Z,98496.52
2018-01-24T02:11:15.018Z,98497.61
2018-01-24T02:13:46.174Z,98492.47
2018-01-24T02:16:17.209Z,98488.34
2018-01-24T02:18:49.015Z,98484.29
2018-01-24T02:24:16.171Z,98479.86
2018-01-24T02:26:47.277Z,98490.83
2018-01-24T02:29:18.361Z,98490.23
2018-01-24T02:31:49.493Z,98483.95
2018-01-24T02:34:20.547Z,98482.88
2018-01-24T02:36:51.668Z,98470.66
2018-01-24T02:39:22.760Z,98471.47
2018-01-24T02:41:53.852Z,98476.59
2018-01-24T02:44:24.916Z,98470.82
2018-01-24T02:46:55.995Z,98477.86
2018-01-24T02:49:27.127Z,98492.19
2018-01-24T02:51:58.192Z,98495.23
2018-01-24T02:54:29.309Z,98491.81
2018-01-24T02:57:00.377Z,98487.05
2018-01-24T02:59:31.495Z,98490.95
2018-01-24T03:02:03.353Z,98490.55
2018-01-24T03:04:34.452Z,98492.98
2018-01-24T03:07:05.520Z,98492.97
2018-01-24T03:09:41.757Z,98495.80
2018-01-24T03:12:13.101Z,98500.12
2018-01-24T03:14:44.195Z,98493.35
2018-01-24T03:17:15.287Z,98487.09
2018-01-24T03:19:46.362Z,98485.81
2018-01-24T03:22:17.437Z,98484.34
2018-01-24T03:24:48.632Z,98486.28
2018-01-24T03:27:19.703Z,98488.91
2018-01-24T03:29:50.814Z,98494.41
2018-01-24T03:32:21.887Z,98487.02
2018-01-24T03:34:53.015Z,98486.02
2018-01-24T03:37:24.110Z,98483.36
2018-01-24T03:39:55.219Z,98491.23
2018-01-24T03:42:26.313Z,98485.55
2018-01-24T03:44:57.419Z,98478.59
2018-01-24T03:47:28.529Z,98478.69
2018-01-24T03:49:59.585Z,98484.04
2018-01-24T03:52:31.183Z,98479.60
2018-01-24T03:55:02.256Z,98485.73
2018-01-24T03:57:33.358Z,98483.67
2018-01-24T04:00:04.430Z,98479.57
2018-01-24T04:02:35.500Z,98473.31
2018-01-24T04:05:06.607Z,98473.72
2018-01-24T04:07:37.678Z,98476.95
2018-01-24T04:10:08.733Z,98479.13
2018-01-24T04:12:41.060Z,98470.22
2018-01-24T04:15:12.134Z,98465.94
2018-01-24T04:17:43.223Z,98470.38
2018-01-24T04:20:14.299Z,98467.69
2018-01-24T04:22:46.100Z,98467.72
2018-01-24T04:25:17.157Z,98465.70
2018-01-24T04:27:48.268Z,98470.34
2018-01-24T04:30:19.329Z,98469.64
2018-01-24T04:32:50.412Z,98472.13
2018-01-24T04:35:21.460Z,98461.73
2018-01-24T04:37:52.549Z,98462.88
2018-01-24T04:40:23.645Z,98465.61
2018-01-24T04:42:54.691Z,98466.69
2018-01-24T04:45:25.785Z,98464.45
2018-01-24T04:47:56.876Z,98466.98
2018-01-24T04:50:27.973Z,98469.95
2018-01-24T04:52:59.072Z,98467.52
2018-01-24T04:55:30.148Z,98467.52
2018-01-24T04:58:01.241Z,98467.92
2018-01-24T05:00:32.367Z,98464.93
2018-01-24T05:03:04.450Z,98477.83
2018-01-24T05:05:35.566Z,98474.16
2018-01-24T05:08:06.673Z,98470.82
2018-01-24T05:10:37.730Z,98468.70
2018-01-24T05:13:09.109Z,98471.42
2018-01-24T05:15:40.253Z,98470.31
2018-01-24T05:18:11.370Z,98471.39
2018-01-24T05:20:42.429Z,98463.72
2018-01-24T05:23:13.556Z,98458.36
2018-01-24T05:25:44.583Z,98455.53
2018-01-24T05:28:15.738Z,98460.39
2018-01-24T05:30:46.839Z,98459.21
2018-01-24T05:33:19.788Z,98467.63
2018-01-24T05:35:50.913Z,98461.03
2018-01-24T05:38:22.038Z,98459.41
2018-01-24T05:40:53.149Z,98458.80
2018-01-24T05:43:24.209Z,98459.31
2018-01-24T05:45:55.288Z,98446.19
2018-01-24T05:48:26.317Z,98452.38
2018-01-24T05:50:57.407Z,98456.45
2018-01-24T05:53:28.583Z,98459.17
2018-01-24T05:55:59.635Z,98450.70
2018-01-24T05:58:30.816Z,98453.59
2018-01-24T06:01:01.920Z,98459.65
2018-01-24T06:03:32.999Z,98455.91
2018-01-24T06:06:04.104Z,98461.27
2018-01-24T06:08:35.203Z,98471.02
2018-01-24T06:11:06.321Z,98466.25
2018-01-24T06:13:37.698Z,98459.67
2018-01-24T06:16:08.714Z,98463.11
2018-01-24T06:18:39.772Z,98464.53
2018-01-24T06:21:10.861Z,98471.39
2018-01-24T06:23:41.924Z,98468.73
2018-01-24T06:26:13.043Z,98468.42
2018-01-24T06:28:44.152Z,98464.58
2018-01-24T06:31:15.259Z,98467.38
2018-01-24T06:33:46.810Z,98458.59
2018-01-24T06:36:18.372Z,98464.45
2018-01-24T06:38:49.495Z,98455.20
2018-01-24T06:41:20.561Z,98463.84
2018-01-24T06:43:51.670Z,98471.06
2018-01-24T06:46:22.736Z,98463.76
2018-01-24T06:48:53.993Z,98464.20
2018-01-24T06:51:25.084Z,98466.22
2018-01-24T06:53:56.186Z,98461.87
2018-01-24T06:56:27.224Z,98465.28
2018-01-24T06:58:58.363Z,98460.31
2018-01-24T07:01:29.479Z,98465.58
2018-01-24T07:04:00.518Z,98460.72
2018-01-24T07:06:31.617Z,98459.77
2018-01-24T07:09:02.744Z,98455.38
2018-01-24T07:11:33.871Z,98465.73
2018-01-24T07:17:07.132Z,98453.56
2018-01-24T07:19:38.260Z,98452.36
2018-01-24T07:22:09.348Z,98440.30
2018-01-24T07:24:40.484Z,98447.48
2018-01-24T07:27:11.604Z,98446.68
2018-01-24T07:29:42.718Z,98452.77
2018-01-24T07:32:13.819Z,98456.75
2018-01-24T07:34:45.449Z,98459.38
2018-01-24T07:37:16.532Z,98451.02
2018-01-24T07:39:47.650Z,98446.66
2018-01-24T07:42:18.725Z,98440.70
2018-01-24T07:44:49.833Z,98444.53
2018-01-24T07:47:20.889Z,98443.08
2018-01-24T07:49:51.978Z,98434.36
2018-01-24T07:52:23.060Z,98438.09
2018-01-24T07:54:54.158Z,98436.49
2018-01-24T07:57:25.221Z,98432.59
2018-01-24T07:59:56.331Z,98438.41
2018-01-24T08:02:27.412Z,98435.41
2018-01-24T08:04:58.546Z,98439.87
2018-01-24T08:07:29.565Z,98430.70
2018-01-24T08:10:01.440Z,98441.08
2018-01-24T08:12:32.530Z,98429.86
2018-01-24T08:15:03.628Z,98432.14
2018-01-24T08:17:34.712Z,98432.84
2018-01-24T08:20:05.747Z,98433.40
2018-01-24T08:22:36.808Z,98439.66
2018-01-24T08:25:07.853Z,98440.05
2018-01-24T08:27:39.060Z,98448.08
2018-01-24T08:30:10.185Z,98445.47
2018-01-24T08:32:41.266Z,98446.94
2018-01-24T08:35:12.363Z,98449.30
2018-01-24T08:37:43.463Z,98448.30
2018-01-24T08:40:14.527Z,98439.25
2018-01-24T08:42:45.632Z,98441.33
2018-01-24T08:45:16.677Z,98439.24
2018-01-24T08:47:47.770Z,98435.76
2018-01-24T08:50:18.869Z,98429.73
2018-01-24T08:52:50.022Z,98433.03
2018-01-24T08:55:21.154Z,98428.91
2018-01-24T08:57:52.256Z,98431.13
2018-01-24T09:00:23.378Z,98427.52
2018-01-24T09:02:54.413Z,98425.14
2018-01-24T09:05:25.478Z,98426.68
2018-01-24T09:07:56.496Z,98406.09
2018-01-24T09:10:27.595Z,98408.43
2018-01-24T09:12:58.646Z,98408.73
2018-01-24T09:15:29.726Z,98406.60
2018-01-24T09:18:00.800Z,98403.48
2018-01-24T09:20:31.929Z,98399.45
2018-01-24T09:23:03.012Z,98393.73
2018-01-24T09:25:34.167Z,98398.50
2018-01-24T09:28:05.272Z,98400.94
2018-01-24T09:30:36.396Z,98399.91
2018-01-24T09:33:07.454Z,98396.38
2018-01-24T09:35:38.579Z,98389.50
2018-01-24T09:38:09.627Z,98384.40
2018-01-24T09:40:40.747Z,98393.72
2018-01-24T09:43:11.832Z,98384.94
2018-01-24T09:45:42.906Z,98391.53
2018-01-24T09:48:13.941Z,98395.75
2018-01-24T09:50:45.028Z,98395.84
2018-01-24T09:53:16.107Z,98402.13
2018-01-24T09:55:47.158Z,98404.10
2018-01-24T09:58:18.264Z,98398.81
2018-01-24T10:00:49.294Z,98404.52
2018-01-24T10:03:20.553Z,98404.77
2018-01-24T10:05:51.640Z,98396.78
2018-01-24T10:08:22.721Z,98392.53
2018-01-24T10:10:53.834Z,98380.91
2018-01-24T10:13:24.905Z,98376.48
2018-01-24T10:15:56.016Z,98367.93
2018-01-24T10:18:27.074Z,98370.20
2018-01-24T10:20:58.388Z,98364.45
2018-01-24T10:23:29.465Z,98367.16
2018-01-24T10:26:00.547Z,98366.29
2018-01-24T10:28:31.628Z,98358.04
2018-01-24T10:31:03.321Z,98357.92
2018-01-24T10:33:34.411Z,98352.34
2018-01-24T10:36:05.520Z,98350.86
2018-01-24T10:38:36.631Z,98340.98
2018-01-24T10:41:07.651Z,98344.03
2018-01-24T10:43:45.768Z,98336.98
2018-01-24T10:46:16.849Z,98326.20
2018-01-24T10:48:47.937Z,98328.66
2018-01-24T10:51:19.021Z,98322.26
2018-01-24T10:53:50.704Z,98311.40
2018-01-24T10:56:21.770Z,98314.22
2018-01-24T10:58:52.877Z,98302.70
2018-01-24T11:01:23.925Z,98301.30
2018-01-24T11:03:54.983Z,98295.22
2018-01-24T11:06:26.018Z,98298.87
2018-01-24T11:08:57.076Z,98289.16
2018-01-24T11:11:28.170Z,98286.78
2018-01-24T11:13:59.273Z,98288.39
2018-01-24T11:16:30.286Z,98294.15
2018-01-24T11:19:01.344Z,98292.95
2018-01-24T11:21:32.388Z,98287.25
2018-01-24T11:24:03.504Z,98289.04
2018-01-24T11:26:34.562Z,98283.14
2018-01-24T11:29:05.662Z,98280.05
2018-01-24T11:31:36.771Z,98278.33
2018-01-24T11:34:08.060Z,98284.66
2018-01-24T11:36:39.114Z,98274.42
2018-01-24T11:39:10.230Z,98273.02
2018-01-24T11:41:41.255Z,98272.05
2018-01-24T11:44:12.339Z,98276.33
2018-01-24T11:46:43.617Z,98266.97
2018-01-24T11:49:14.638Z,98270.61
2018-01-24T11:51:45.746Z,98269.28
2018-01-24T11:54:16.835Z,98268.74
2018-01-24T11:56:47.983Z,98271.76
2018-01-24T11:59:19.668Z,98271.33
2018-01-24T12:01:50.771Z,98266.08
2018-01-24T12:04:23.038Z,98271.19
2018-01-24T12:06:54.088Z,98259.73
2018-01-24T12:09:25.166Z,98263.14
2018-01-24T12:11:56.237Z,98250.13
2018-01-24T12:14:27.332Z,98252.13
2018-01-24T12:16:58.406Z,98245.58
2018-01-24T12:19:29.511Z,98240.17
2018-01-24T12:22:00.558Z,98238.73
2018-01-24T12:24:31.675Z,98232.49
2018-01-24T12:27:02.804Z,98233.37
2018-01-24T12:29:33.890Z,98222.49
2018-01-24T12:32:04.932Z,98218.90
2018-01-24T12:34:36.030Z,98215.36
2018-01-24T12:37:07.086Z,98218.30
2018-01-24T12:39:38.147Z,98211.95
2018-01-24T12:42:09.200Z,98213.61
2018-01-24T12:44:40.278Z,98204.98
2018-01-24T12:47:11.368Z,98197.76
2018-01-24T12:49:42.449Z,98193.25
2018-01-24T12:52:13.582Z,98185.45
2018-01-24T12:54:44.668Z,98190.64
2018-01-24T12:57:15.727Z,98182.93
2018-01-24T12:59:46.790Z,98179.61
2018-01-24T13:02:17.899Z,98166.44
2018-01-24T13:04:48.980Z,98169.61
2018-01-24T13:07:20.108Z,98166.20
2018-01-24T13:09:51.185Z,98157.05
2018-01-24T13:12:22.265Z,98152.48
2018-01-24T13:14:53.614Z,98147.67
2018-01-24T13:17:24.699Z,98145.42
2018-01-24T13:19:55.812Z,98136.78
2018-01-24T13:22:26.998Z,98136.08
2018-01-24T13:24:58.057Z,98128.19
2018-01-24T13:27:29.155Z,98126.88
2018-01-24T13:30:00.184Z,98124.23
2018-01-24T13:32:31.281Z,98111.50
2018-01-24T13:35:02.365Z,98110.99
2018-01-24T13:37:33.474Z,98107.29
2018-01-24T13:40:04.524Z,98102.40
2018-01-24T13:42:35.773Z,98104.38
2018-01-24T13:45:06.881Z,98097.62
2018-01-24T13:47:37.964Z,98098.82
2018-01-24T13:50:09.012Z,98103.33
2018-01-24T13:52:40.070Z,98095.20
2018-01-24T13:55:11.304Z,98092.80
2018-01-24T13:57:42.367Z,98094.67
2018-01-24T14:00:13.470Z,98090.94
2018-01-24T14:02:44.558Z,98091.16
2018-01-24T14:05:15.664Z,98089.67
2018-01-24T14:07:46.723Z,98086.11
2018-01-24T14:10:17.844Z,98080.47
2018-01-24T14:12:49.878Z,98083.77
2018-01-24T14:15:20.958Z,98093.70
2018-01-24T14:17:51.986Z,98091.16
2018-01-24T14:20:23.099Z,98085.28
2018-01-24T14:22:54.784Z,98074.45
2018-01-24T14:25:25.893Z,98071.92
2018-01-24T14:27:56.958Z,98072.32
2018-01-24T14:30:28.128Z,98072.71
2018-01-24T14:32:59.278Z,98071.29
2018-01-24T14:35:30.385Z,98073.13
2018-01-24T14:38:01.430Z,98072.21
2018-01-24T14:40:32.556Z,98067.38
2018-01-24T14:43:03.640Z,98058.98
2018-01-24T14:45:34.735Z,98058.56
2018-01-24T14:48:05.834Z,98050.36
2018-01-24T14:50:36.911Z,98051.98
2018-01-24T14:53:07.985Z,98051.69
2018-01-24T14:55:39.114Z,98053.33
2018-01-24T14:58:10.236Z,98049.70
2018-01-24T15:00:41.331Z,98058.39
2018-01-24T15:03:12.441Z,98055.33
2018-01-24T15:05:43.453Z,98054.65
2018-01-24T15:08:14.599Z,98053.79
2018-01-24T15:10:45.640Z,98052.25
2018-01-24T15:13:16.764Z,98057.93
2018-01-24T15:15:47.817Z,98053.58
2018-01-24T15:18:18.912Z,98050.30
2018-01-24T15:20:49.990Z,98059.68
2018-01-24T15:23:21.102Z,98059.95
2018-01-24T15:25:52.281Z,98051.56
2018-01-24T15:28:23.390Z,98046.99
2018-01-24T15:30:54.480Z,98046.38
2018-01-24T15:33:25.642Z,98042.67
2018-01-24T15:35:56.675Z,98042.26
2018-01-24T15:38:27.920Z,98041.35
2018-01-24T15:40:58.994Z,98046.38
2018-01-24T15:43:30.077Z,98038.41
2018-01-24T15:46:01.113Z,98038.02
2018-01-24T15:48:32.221Z,98036.92
2018-01-24T15:51:03.278Z,98041.92
2018-01-24T15:53:34.393Z,98035.30
2018-01-24T15:56:05.444Z,98033.94
2018-01-24T15:58:36.558Z,98032.19
2018-01-24T16:01:07.640Z,98029.14
2018-01-24T16:03:38.757Z,98025.61
2018-01-24T16:06:09.842Z,98024.16
2018-01-24T16:08:40.942Z,98010.33
2018-01-24T16:11:12.002Z,98017.82
2018-01-24T16:13:43.078Z,98013.95
2018-01-24T16:16:14.115Z,98016.48
2018-01-24T16:18:45.257Z,98010.80
2018-01-24T16:21:16.318Z,98018.30
2018-01-24T16:23:47.495Z,98015.69
2018-01-24T16:26:18.532Z,98017.81
2018-01-24T16:28:49.647Z,98017.17
2018-01-24T16:31:20.716Z,98013.13
2018-01-24T16:33:51.827Z,98013.05
2018-01-24T16:36:22.916Z,98008.09
2018-01-24T16:38:54.062Z,98002.95
2018-01-24T16:41:25.132Z,97999.09
2018-01-24T16:43:56.269Z,97995.35
2018-01-24T16:46:27.298Z,97989.35
2018-01-24T16:48:58.415Z,97991.42
2018-01-24T16:51:29.479Z,97987.60
2018-01-24T16:54:00.578Z,97981.04
2018-01-24T16:56:31.714Z,97980.83
2018-01-24T16:59:02.811Z,97979.95
2018-01-24T17:01:33.929Z,97975.17
2018-01-24T17:04:05.462Z,97982.20
2018-01-24T17:06:36.505Z,97974.42
2018-01-24T17:09:07.613Z,97960.43
2018-01-24T17:11:38.672Z,97961.11
2018-01-24T17:14:09.821Z,97967.11
2018-01-24T17:16:40.951Z,97956.60
2018-01-24T17:19:12.030Z,97952.33
2018-01-24T17:21:43.124Z,97954.45
2018-01-24T17:24:14.191Z,97947.12
2018-01-24T17:26:45.330Z,97949.64
2018-01-24T17:29:16.411Z,97943.47
2018-01-24T17:31:47.522Z,97938.91
2018-01-24T17:34:18.620Z,97939.05
2018-01-24T17:36:49.728Z,97937.81
2018-01-24T17:39:20.812Z,97937.39
2018-01-24T17:41:51.881Z,97936.36
2018-01-24T17:44:23.003Z,97936.80
2018-01-24T17:46:54.188Z,97931.37
2018-01-24T17:49:25.258Z,97927.94
2018-01-24T17:51:56.573Z,97925.27
2018-01-24T17:54:27.706Z,97928.34
2018-01-24T17:56:58.853Z,97921.73
2018-01-24T17:59:30.736Z,97924.58
2018-01-24T18:02:01.758Z,97924.39
2018-01-24T18:04:32.848Z,97921.03
2018-01-24T18:07:03.978Z,97920.34
2018-01-24T18:09:35.070Z,97919.97
2018-01-24T18:12:06.136Z,97920.87
2018-01-24T18:14:37.359Z,97922.26
2018-01-24T18:17:08.554Z,97917.44
2018-01-24T18:19:39.628Z,97916.48
2018-01-24T18:22:10.744Z,97927.32
2018-01-24T18:24:41.782Z,97924.11
2018-01-24T18:27:13.598Z,97919.77
2018-01-24T18:29:44.690Z,97921.04
2018-01-24T18:32:15.760Z,97926.44
2018-01-24T18:34:46.792Z,97913.77
2018-01-24T18:37:17.881Z,97913.51
2018-01-24T18:39:48.990Z,97913.87
2018-01-24T18:42:20.042Z,97919.77
2018-01-24T18:44:51.140Z,97908.02
2018-01-24T18:47:22.239Z,97901.31
2018-01-24T18:49:55.293Z,97897.16
2018-01-24T18:52:26.350Z,97889.06
2018-01-24T18:54:57.446Z,97899.53
2018-01-24T18:57:28.514Z,97894.88
2018-01-24T18:59:59.584Z,97892.73
2018-01-24T19:02:30.666Z,97890.94
2018-01-24T19:05:01.742Z,97883.88
2018-01-24T19:07:32.853Z,97880.96
2018-01-24T19:10:03.978Z,97887.58
2018-01-24T19:12:35.049Z,97884.55
2018-01-24T19:15:06.128Z,97885.97
2018-01-24T19:17:37.136Z,97881.13
2018-01-24T19:20:08.234Z,97883.56
2018-01-24T19:22:39.283Z,97890.38
2018-01-24T19:25:10.407Z,97895.33
2018-01-24T19:27:41.466Z,97892.70
2018-01-24T19:30:12.556Z,97887.27
2018-01-24T19:32:43.637Z,97882.53
2018-01-24T19:35:14.673Z,97883.61
2018-01-24T19:37:45.774Z,97884.17
2018-01-24T19:40:16.943Z,97885.16
2018-01-24T19:42:48.045Z,97881.91
2018-01-24T19:45:19.157Z,97887.17
2018-01-24T19:47:50.192Z,97879.70
2018-01-24T19:50:21.284Z,97883.43
2018-01-24T19:52:52.371Z,97888.42
2018-01-24T19:55:23.426Z,97891.78
2018-01-24T19:57:54.502Z,97886.62
2018-01-24T20:00:25.592Z,97890.64
2018-01-24T20:02:56.707Z,97892.97
2018-01-24T20:05:27.759Z,97892.48
2018-01-24T20:07:58.893Z,97891.52
2018-01-24T20:10:29.961Z,97894.33
2018-01-24T20:13:01.309Z,97886.88
2018-01-24T20:15:32.420Z,97884.36
2018-01-24T20:18:03.554Z,97882.05
2018-01-24T20:20:34.658Z,97885.93
2018-01-24T20:23:05.732Z,97877.90
2018-01-24T20:25:37.317Z,97879.61
2018-01-24T20:28:08.376Z,97871.34
2018-01-24T20:30:39.463Z,97870.64
2018-01-24T20:33:10.545Z,97868.31
2018-01-24T20:35:41.587Z,97863.08
2018-01-24T20:38:13.135Z,97873.86
2018-01-24T20:40:44.204Z,97872.22
2018-01-24T20:43:15.322Z,97877.62
2018-01-24T20:45:46.415Z,97876.71
2018-01-24T20:48:17.559Z,97874.49
2018-01-24T20:50:48.627Z,97871.88
2018-01-24T20:53:19.739Z,97877.70
2018-01-24T20:55:51.054Z,97874.98
2018-01-24T20:58:22.116Z,97869.64
2018-01-24T21:00:53.408Z,97871.97
2018-01-24T21:03:24.461Z,97876.30
2018-01-24T21:05:55.549Z,97870.71
2018-01-24T21:08:26.717Z,97877.86
2018-01-24T21:10:57.831Z,97876.66
2018-01-24T21:13:28.919Z,97876.14
2018-01-24T21:16:00.042Z,97872.47
2018-01-24T21:18:31.082Z,97873.80
2018-01-24T21:21:02.206Z,97865.58
2018-01-24T21:23:33.236Z,97869.87
2018-01-24T21:26:04.298Z,97872.44
2018-01-24T21:32:10.818Z,97868.42
2018-01-24T21:34:54.075Z,97873.85
2018-01-24T21:37:25.120Z,97871.14
2018-01-24T21:39:56.238Z,97872.65
2018-01-24T21:42:27.338Z,97862.28
2018-01-24T21:44:58.453Z,97868.72
2018-01-24T21:47:29.531Z,97877.18
2018-01-24T21:50:00.597Z,97872.65
2018-01-24T21:52:31.659Z,97875.06
2018-01-24T21:55:02.735Z,97870.89
2018-01-24T21:57:33.810Z,97871.09
2018-01-24T22:00:04.923Z,97880.16
2018-01-24T22:02:36.088Z,97871.04
2018-01-24T22:05:07.185Z,97878.28
2018-01-24T22:07:38.304Z,97865.70
2018-01-24T22:10:09.457Z,97870.74
2018-01-24T22:12:40.589Z,97873.16
2018-01-24T22:15:11.692Z,97874.72
2018-01-24T22:17:42.777Z,97877.13
2018-01-24T22:20:13.913Z,97874.25
2018-01-24T22:22:45.014Z,97875.02
2018-01-24T22:25:16.105Z,97872.20
2018-01-24T22:27:49.320Z,97868.83
2018-01-24T22:30:20.425Z,97872.65
2018-01-24T22:32:51.653Z,97871.04
2018-01-24T22:35:22.706Z,97871.59
2018-01-24T22:37:55.002Z,97872.74
2018-01-24T22:40:26.042Z,97867.02
2018-01-24T22:42:58.470Z,97871.58
2018-01-24T22:45:29.509Z,97868.06
2018-01-24T22:48:00.913Z,97874.34
2018-01-24T22:50:32.209Z,97869.88
2018-01-24T22:53:03.309Z,97870.88
2018-01-24T22:55:34.445Z,97874.39
2018-01-24T22:58:05.495Z,97870.97
2018-01-24T23:00:36.579Z,97876.87
2018-01-24T23:03:07.682Z,97871.28
2018-01-24T23:05:38.693Z,97877.08
2018-01-24T23:08:09.828Z,97871.41
2018-01-24T23:10:40.978Z,97868.17
2018-01-24T23:13:12.442Z,97874.21
2018-01-24T23:15:43.524Z,97871.34
2018-01-24T23:18:14.661Z,97876.98
2018-01-24T23:20:45.744Z,97875.61
2018-01-24T23:23:16.886Z,97872.90
2018-01-24T23:25:47.952Z,97875.36
2018-01-24T23:28:19.181Z,97870.47
2018-01-24T23:30:50.242Z,97873.98
2018-01-24T23:33:21.399Z,97869.59
2018-01-24T23:35:52.500Z,97872.95
2018-01-24T23:38:24.233Z,97875.33
2018-01-24T23:40:55.355Z,97882.30
2018-01-24T23:43:26.425Z,97871.44
2018-01-24T23:45:57.615Z,97879.28
2018-01-24T23:48:28.846Z,97881.73
2018-01-24T23:50:59.941Z,97876.30
2018-01-24T23:53:31.041Z,97873.91
2018-01-24T23:56:02.118Z,97874.61
2018-01-24T23:58:33.202Z,97866.48
